Time;durP1;ratioP1;P1;durP2;ratioP2;P2;SDS_P1;SDS_P2;PMS_P1;PMS_P2;Temp;Humidity;BMP_temperature;BMP_pressure;BME280_temperature;BME280_humidity;BME280_pressure;Samples;Min_cycle;Max_cycle;Signal;HPM_P1;HPM_P2
2022/01/26 05:39:31;;;;;;;230.60;44.28;;;-2.60;99.90;;;;;;6072996;23;20029;-89
2022/01/26 05:43:08;;;;;;;235.35;46.22;;;-2.60;99.90;;;;;;6088291;23;20341;-89
2022/01/26 05:51:16;;;;;;;191.70;41.20;;;-2.70;99.90;;;;;;6091998;23;20081;-88
2022/01/26 06:02:50;;;;;;;147.73;42.92;;;-2.60;99.90;;;;;;6093857;23;20322;-86
2022/01/26 06:06:07;;;;;;;;;;;;;;;;;;;;;
2022/01/26 06:09:18;;;;;;;138.40;40.17;;;-2.60;99.90;;;;;;6092141;23;20156;-91
2022/01/26 06:14:00;;;;;;;190.93;43.03;;;-2.60;99.90;;;;;;6073364;23;20181;-90
2022/01/26 06:16:29;;;;;;;261.40;45.42;;;-2.70;99.90;;;;;;6058351;23;20123;-88
2022/01/26 06:19:23;;;;;;;193.45;45.72;;;-2.70;99.90;;;;;;6062620;23;20433;-84
2022/01/26 06:50:38;;;;;;;163.73;38.72;;;-2.90;99.90;;;;;;5946561;24;20028;-89
2022/01/26 06:54:11;;;;;;;;;;;;;;;;;;;;;
2022/01/26 06:57:16;;;;;;;161.43;40.13;;;-2.90;99.90;;;;;;5962346;23;20140;-88
2022/01/26 07:01:06;;;;;;;203.60;43.78;;;-2.90;99.90;;;;;;6051543;23;20116;-88
2022/01/26 07:07:33;;;;;;;492.20;51.53;;;-2.90;99.90;;;;;;6028448;23;20024;-88
2022/01/26 07:10:59;;;;;;;;;;;;;;;;;;;;;
2022/01/26 07:26:36;;;;;;;268.10;45.63;;;-2.90;99.90;;;;;;5913402;24;20025;-90
2022/01/26 07:43:11;;;;;;;187.65;44.80;;;-2.70;99.90;;;;;;5918562;24;20052;-88
2022/01/26 07:50:14;;;;;;;;;;;;;;;;;;;;;
2022/01/26 08:02:43;;;;;;;;;;;;;;;;;;;;;
2022/01/26 08:34:18;;;;;;;113.22;39.55;;;-2.50;99.90;;;;;;6007792;22;4099385;-87
2022/01/26 08:37:08;;;;;;;123.35;41.70;;;-2.50;99.90;;;;;;6156331;23;20055;-87
2022/01/26 08:40:07;;;;;;;116.30;42.78;;;-2.50;99.90;;;;;;6155982;23;20106;-87
2022/01/26 08:43:01;;;;;;;109.32;42.38;;;-2.40;99.90;;;;;;6135862;23;20033;-86
2022/01/26 08:45:55;;;;;;;127.25;45.00;;;-2.40;99.90;;;;;;6157617;23;20032;-86
2022/01/26 08:49:04;;;;;;;;;;;;;;;;;;;;;
2022/01/26 08:52:16;;;;;;;113.13;42.97;;;-2.30;99.90;;;;;;6156341;23;20025;-87
2022/01/26 08:55:22;;;;;;;126.85;44.28;;;-2.30;99.90;;;;;;6155446;23;20040;-88
2022/01/26 08:58:27;;;;;;;173.03;46.43;;;-2.20;99.90;;;;;;6155932;23;20108;-86
2022/01/26 09:01:20;;;;;;;121.90;44.83;;;-2.20;99.90;;;;;;6138173;23;20655;-87
2022/01/26 09:04:27;;;;;;;130.70;45.35;;;-2.20;99.90;;;;;;6137409;23;20029;-88
2022/01/26 09:07:37;;;;;;;199.57;49.60;;;-2.10;99.90;;;;;;6051276;23;20101;-87
2022/01/26 09:10:29;;;;;;;110.60;43.67;;;-2.10;99.90;;;;;;6048243;23;20029;-86
2022/01/26 09:13:56;;;;;;;188.50;49.80;;;-2.00;99.90;;;;;;6051389;23;20107;-87
2022/01/26 09:16:58;;;;;;;143.05;46.25;;;-2.10;99.90;;;;;;6068932;23;20177;-85
2022/01/26 09:19:58;;;;;;;133.82;45.88;;;-2.10;99.90;;;;;;6051516;23;20030;-85
2022/01/26 09:22:45;;;;;;;119.25;45.80;;;-2.00;99.90;;;;;;6065155;23;20103;-86
2022/01/26 09:26:06;;;;;;;131.43;47.42;;;-2.00;99.90;;;;;;6069857;23;20110;-89
2022/01/26 09:29:16;;;;;;;133.50;50.65;;;-1.90;99.90;;;;;;6067360;23;20089;-88
2022/01/26 09:36:32;;;;;;;123.28;43.40;;;-1.70;99.90;;;;;;6071211;23;20331;-88
2022/01/26 09:39:33;;;;;;;117.00;40.72;;;-1.60;99.90;;;;;;6054508;23;20312;-87
2022/01/26 09:46:53;;;;;;;100.70;40.45;;;-1.50;99.90;;;;;;6012814;23;20133;-90
2022/01/26 09:53:46;;;;;;;97.85;40.63;;;-1.50;99.90;;;;;;5975218;23;20040;-88
2022/01/26 09:57:25;;;;;;;114.43;41.38;;;-1.40;99.90;;;;;;5883031;23;20423;-88
2022/01/26 10:04:56;;;;;;;244.43;44.92;;;-1.70;99.90;;;;;;5940603;23;20349;-88
2022/01/26 10:28:57;;;;;;;122.72;47.30;;;-1.80;99.90;;;;;;6005108;23;20482;-86
2022/01/26 10:32:30;;;;;;;114.65;44.58;;;-1.60;99.90;;;;;;6003817;23;20446;-87
2022/01/26 10:36:04;;;;;;;126.18;45.55;;;-1.70;99.90;;;;;;6020102;23;20465;-87
2022/01/26 10:39:11;;;;;;;146.20;47.40;;;-1.70;99.90;;;;;;6069405;23;20014;-85
2022/01/26 10:58:58;;;;;;;89.68;41.13;;;-1.30;99.90;;;;;;6244896;22;20027;-88
2022/01/26 11:06:18;;;;;;;81.35;40.15;;;-0.80;99.90;;;;;;6280935;22;20248;-88
2022/01/26 11:09:41;;;;;;;77.15;36.90;;;-0.60;99.90;;;;;;6271536;22;20091;-87
2022/01/26 11:13:28;;;;;;;75.72;37.53;;;-0.50;99.90;;;;;;6275837;22;20051;-88
2022/01/26 11:17:15;;;;;;;73.35;36.67;;;-0.40;99.90;;;;;;6280468;22;20030;-90
2022/01/26 12:46:26;;;;;;;69.38;30.75;;;0.20;99.90;;;;;;6032261;23;20012;-86
2022/01/26 12:49:24;;;;;;;79.53;33.22;;;0.40;99.90;;;;;;6067529;23;20054;-86
2022/01/26 12:52:17;;;;;;;68.38;30.17;;;0.30;99.90;;;;;;6098007;23;20037;-88
2022/01/26 12:55:45;;;;;;;;;;;;;;;;;;;;;
2022/01/26 13:08:12;;;;;;;;;;;;;;;;;;;;;
2022/01/26 14:13:26;;;;;;;99.55;35.30;;;0.60;99.90;;;;;;6276578;22;20177;-86
2022/01/26 18:51:55;;;;;;;104.22;39.03;;;-1.00;99.90;;;;;;6153819;23;20057;-90
2022/01/26 18:54:43;;;;;;;115.55;40.72;;;-1.00;99.90;;;;;;6157133;23;20033;-89
2022/01/26 18:57:30;;;;;;;108.97;38.22;;;-1.00;99.90;;;;;;6133110;23;20401;-89
2022/01/26 19:00:17;;;;;;;94.78;33.97;;;-0.90;99.90;;;;;;6154998;23;20045;-88
2022/01/26 19:03:06;;;;;;;98.28;33.65;;;-0.90;99.90;;;;;;6155787;23;20026;-89
2022/01/26 19:05:56;;;;;;;94.20;30.67;;;-0.90;99.90;;;;;;6154402;23;20077;-89
2022/01/26 19:08:44;;;;;;;94.75;32.47;;;-0.90;99.90;;;;;;6136200;23;20100;-90
2022/01/26 19:11:36;;;;;;;107.65;37.83;;;-0.90;99.90;;;;;;6134098;23;20029;-89
2022/01/26 19:14:26;;;;;;;109.63;37.03;;;-1.00;99.90;;;;;;6133416;23;20025;-89
2022/01/26 19:17:34;;;;;;;108.22;38.65;;;-0.90;99.90;;;;;;6150400;23;20743;-89
2022/01/26 19:26:10;;;;;;;95.10;34.28;;;-1.00;99.90;;;;;;6152305;23;20025;-90
2022/01/26 19:29:10;;;;;;;94.03;33.67;;;-1.00;99.90;;;;;;6131719;23;20167;-89
2022/01/26 19:42:12;;;;;;;107.38;36.20;;;-0.90;99.90;;;;;;6151925;23;20109;-88
2022/01/26 19:50:44;;;;;;;106.78;35.60;;;-0.90;99.90;;;;;;6151354;23;20237;-88
2022/01/26 19:50:48;;;;;;;106.00;41.13;;;-0.90;99.90;;;;;;6149606;23;20034;-88
2022/01/26 19:53:40;;;;;;;108.25;37.28;;;-0.80;99.90;;;;;;6151379;23;20043;-89
2022/01/26 19:56:32;;;;;;;110.53;38.83;;;-0.80;99.90;;;;;;6129033;23;20052;-89
2022/01/26 19:59:22;;;;;;;112.97;41.40;;;-0.90;99.90;;;;;;6129570;23;20420;-89
2022/01/26 20:02:10;;;;;;;127.30;45.53;;;-0.90;99.90;;;;;;6149594;23;20041;-89
2022/01/26 20:05:00;;;;;;;204.45;77.75;;;-0.90;99.90;;;;;;6128963;23;20029;-90
2022/01/26 20:07:57;;;;;;;140.25;51.15;;;-0.90;99.90;;;;;;6129728;23;20026;-88
2022/01/26 20:10:52;;;;;;;137.05;50.67;;;-0.90;99.90;;;;;;6130771;23;20022;-89
2022/01/26 20:13:43;;;;;;;103.53;38.47;;;-0.90;99.90;;;;;;6149079;23;20109;-88
2022/01/26 20:16:32;;;;;;;104.43;34.38;;;-0.90;99.90;;;;;;6126998;23;20137;-89
2022/01/26 20:19:20;;;;;;;92.00;33.05;;;-0.90;99.90;;;;;;6129178;23;20386;-90
2022/01/26 20:22:08;;;;;;;101.22;36.35;;;-0.90;99.90;;;;;;6129154;23;20407;-89
2022/01/26 20:24:56;;;;;;;100.68;36.58;;;-0.90;99.90;;;;;;6129078;23;20026;-89
2022/01/26 20:27:52;;;;;;;106.68;36.42;;;-0.90;99.90;;;;;;6131738;23;20144;-89
2022/01/26 20:31:07;;;;;;;103.93;36.85;;;-0.90;99.90;;;;;;6134267;23;20021;-89
2022/01/26 20:34:06;;;;;;;76.32;26.80;;;-0.90;99.90;;;;;;6132848;23;20026;-89
2022/01/26 20:36:59;;;;;;;106.63;39.70;;;-0.90;99.90;;;;;;6131831;23;20424;-89
2022/01/26 20:39:47;;;;;;;100.82;37.22;;;-0.80;99.90;;;;;;6129658;23;20101;-90
2022/01/26 20:42:43;;;;;;;103.28;33.88;;;-0.90;99.90;;;;;;6131011;23;20029;-90
2022/01/26 20:45:49;;;;;;;;;;;-0.90;99.90;;;;;;6133559;23;20098;-89
2022/01/26 20:49:06;;;;;;;92.43;34.22;;;-0.90;99.90;;;;;;6137721;23;19916;-89
2022/01/26 20:52:11;;;;;;;103.10;37.17;;;-0.80;99.90;;;;;;6130210;23;20018;-90
2022/01/26 20:55:04;;;;;;;94.55;35.15;;;-0.80;99.90;;;;;;6129274;23;20025;-88
2022/01/26 20:57:56;;;;;;;95.95;35.63;;;-0.80;99.90;;;;;;6152094;23;20445;-90
2022/01/26 21:00:43;;;;;;;112.50;41.83;;;-0.80;99.90;;;;;;6128081;23;20034;-89
2022/01/26 21:03:32;;;;;;;107.20;40.75;;;-0.80;99.90;;;;;;6130882;23;20032;-90
2022/01/26 21:06:23;;;;;;;93.60;37.42;;;-0.80;99.90;;;;;;6128759;23;20029;-90
2022/01/26 21:09:20;;;;;;;94.13;35.92;;;-0.80;99.90;;;;;;6126902;23;20025;-91
2022/01/26 21:12:21;;;;;;;102.13;37.47;;;-0.80;99.90;;;;;;6133183;22;20052;-89
2022/01/26 21:15:10;;;;;;;103.93;36.78;;;-0.90;99.90;;;;;;6131659;23;20791;-90
2022/01/26 21:18:00;;;;;;;99.97;36.20;;;-0.90;99.90;;;;;;6128006;23;20026;-90
2022/01/26 21:21:04;;;;;;;102.65;38.40;;;-0.80;99.90;;;;;;6131385;23;20036;-89
2022/01/26 21:24:16;;;;;;;103.82;35.97;;;-0.80;99.90;;;;;;6133606;23;20093;-91
2022/01/26 21:27:06;;;;;;;103.35;37.40;;;-0.90;99.90;;;;;;6130809;23;20057;-90
2022/01/26 21:29:57;;;;;;;116.03;40.38;;;-0.90;99.90;;;;;;6130087;23;20614;-91
2022/01/26 21:32:45;;;;;;;100.80;39.65;;;-0.90;99.90;;;;;;6157730;23;20389;-91
2022/01/26 21:35:35;;;;;;;116.35;41.42;;;-0.90;99.90;;;;;;6137062;23;20025;-90
2022/01/26 21:38:23;;;;;;;104.53;39.35;;;-0.90;99.90;;;;;;6136841;23;20033;-89
2022/01/26 21:41:10;;;;;;;97.22;37.60;;;-0.90;99.90;;;;;;6151832;23;20029;-90
2022/01/26 21:43:59;;;;;;;108.15;37.08;;;-0.90;99.90;;;;;;6153824;23;20052;-90
2022/01/26 21:46:46;;;;;;;97.75;37.53;;;-1.00;99.90;;;;;;6158846;23;20021;-89
2022/01/26 21:49:33;;;;;;;98.78;37.25;;;-0.90;99.90;;;;;;6137036;23;20025;-90
2022/01/26 21:52:23;;;;;;;90.75;38.40;;;-0.90;99.90;;;;;;6161647;23;20033;-89
2022/01/26 21:55:12;;;;;;;95.35;36.70;;;-0.90;99.90;;;;;;6131033;23;20417;-89
2022/01/26 21:58:01;;;;;;;91.63;36.08;;;-0.90;99.90;;;;;;6132093;23;20401;-88
2022/01/26 22:00:49;;;;;;;93.13;36.55;;;-0.90;99.90;;;;;;6129691;23;20119;-88
2022/01/26 22:03:36;;;;;;;96.28;37.58;;;-0.90;99.90;;;;;;6152545;23;20037;-88
2022/01/26 22:06:23;;;;;;;91.90;35.70;;;-1.00;99.90;;;;;;6131027;23;20091;-89
2022/01/26 22:09:11;;;;;;;84.85;34.70;;;-1.00;99.90;;;;;;6150198;23;20032;-88
2022/01/26 22:12:01;;;;;;;92.88;34.60;;;-1.00;99.90;;;;;;6150762;23;20021;-89
2022/01/26 22:14:49;;;;;;;86.93;34.03;;;-1.00;99.90;;;;;;6151996;23;20040;-89
2022/01/26 22:17:36;;;;;;;89.85;35.22;;;-1.00;99.90;;;;;;6130569;23;20409;-89
2022/01/26 22:20:24;;;;;;;86.90;36.72;;;-1.00;99.90;;;;;;6129150;23;20030;-87
2022/01/26 22:23:12;;;;;;;92.43;37.05;;;-1.00;99.90;;;;;;6150467;23;20022;-86
2022/01/26 22:26:05;;;;;;;86.82;33.55;;;-1.00;99.90;;;;;;6131271;23;20436;-89
2022/01/26 22:28:55;;;;;;;99.85;39.58;;;-1.00;99.90;;;;;;6153232;23;20033;-89
2022/01/26 22:31:42;;;;;;;91.38;35.95;;;-1.00;99.90;;;;;;6128835;23;20022;-89
2022/01/26 22:34:30;;;;;;;95.90;36.97;;;-1.00;99.90;;;;;;6151919;23;20085;-87
2022/01/26 22:37:25;;;;;;;102.88;38.63;;;-1.00;99.90;;;;;;6129218;23;20029;-88
2022/01/26 22:40:15;;;;;;;104.22;39.75;;;-0.90;99.90;;;;;;6151224;23;20333;-88
2022/01/26 22:43:25;;;;;;;93.70;36.45;;;-1.00;99.90;;;;;;6153534;23;20105;-88
2022/01/26 22:46:12;;;;;;;97.43;38.95;;;-1.00;99.90;;;;;;6128046;23;20033;-89
2022/01/26 22:49:00;;;;;;;99.72;38.33;;;-1.00;99.90;;;;;;6129596;23;20385;-88
2022/01/26 22:51:50;;;;;;;95.57;37.25;;;-1.00;99.90;;;;;;6149447;23;20388;-88
2022/01/26 22:54:37;;;;;;;100.95;39.33;;;-1.00;99.90;;;;;;6152122;23;20029;-88
2022/01/26 22:57:47;;;;;;;96.00;37.83;;;-1.00;99.90;;;;;;6132821;23;20037;-87
2022/01/26 23:01:34;;;;;;;98.72;38.20;;;-1.00;99.90;;;;;;6151646;23;20114;-87
2022/01/26 23:03:56;;;;;;;103.88;41.50;;;-1.00;99.90;;;;;;6151463;23;20025;-88
2022/01/26 23:06:43;;;;;;;105.05;41.00;;;-1.00;99.90;;;;;;6130311;23;20115;-89
2022/01/26 23:09:30;;;;;;;101.85;41.03;;;-1.00;99.90;;;;;;6151956;23;20029;-88
2022/01/26 23:12:19;;;;;;;103.82;41.20;;;-1.00;99.90;;;;;;6156686;23;20105;-87
2022/01/26 23:15:26;;;;;;;101.25;40.28;;;-1.00;99.90;;;;;;6165608;23;20115;-88
2022/01/26 23:18:16;;;;;;;108.65;40.28;;;-1.00;99.90;;;;;;6158830;23;20036;-89
2022/01/26 23:21:06;;;;;;;95.63;40.00;;;-1.10;99.90;;;;;;6131373;23;20026;-87
2022/01/26 23:24:02;;;;;;;95.78;39.65;;;-1.10;99.90;;;;;;6151339;23;20036;-87
2022/01/26 23:27:01;;;;;;;91.47;38.35;;;-1.10;99.90;;;;;;6130112;23;20079;-87
2022/01/26 23:30:08;;;;;;;98.28;41.05;;;-1.10;99.90;;;;;;6129977;23;20182;-87
